Bloomingdale, New Jersey
Current Conditions -  °F | °C
As of 6:53 AM on Thursday 18 Dec 2014 (Local Time) from KCDW Reporting Station
Overcast Overcast  
Wind Chill: 29°   Ceiling: 4200
Heat Index: 37°   Visibility: 10mi
Dew Point: 21°   Wind: 13mph
Humidity: 52%   Direction: 320°NW
Pressure: 29.97"   Gusts: 23mph
Location:  41.01°N, 74.34°W
Report Text: KCDW 181153Z AUTO 32011G20KT 10SM OVC042 03/M06 A2997 RMK AO2 SLP153 T00281061 10044 20022 53016 TSNO
Loading
Personal Weather Stations






























Interactive Weather Map New forecast layout! Learn more

10-Day Weather Forecast

Advertisements
Track Severe Weather on mobile